sensor_id;sensor_type;location;lat;lon;timestamp;P1;durP1;ratioP1;P2;durP2;ratioP2
69956;SDS011;57283;54.816;9.482;2023-07-13T00:01:58;7.40;;;3.40;;
69956;SDS011;57283;54.816;9.482;2023-07-13T00:04:26;7.87;;;3.57;;
69956;SDS011;57283;54.816;9.482;2023-07-13T00:06:55;7.57;;;3.50;;
69956;SDS011;57283;54.816;9.482;2023-07-13T00:09:25;8.73;;;3.38;;
69956;SDS011;57283;54.816;9.482;2023-07-13T00:11:54;8.80;;;3.17;;
69956;SDS011;57283;54.816;9.482;2023-07-13T00:14:22;6.85;;;3.13;;
69956;SDS011;57283;54.816;9.482;2023-07-13T00:16:50;8.77;;;3.17;;
69956;SDS011;57283;54.816;9.482;2023-07-13T00:19:17;9.75;;;3.80;;
69956;SDS011;57283;54.816;9.482;2023-07-13T00:21:45;8.85;;;3.70;;
69956;SDS011;57283;54.816;9.482;2023-07-13T00:24:14;8.38;;;3.40;;
69956;SDS011;57283;54.816;9.482;2023-07-13T00:26:43;9.73;;;3.70;;
69956;SDS011;57283;54.816;9.482;2023-07-13T00:29:12;7.80;;;3.10;;
69956;SDS011;57283;54.816;9.482;2023-07-13T00:31:40;8.48;;;3.65;;
69956;SDS011;57283;54.816;9.482;2023-07-13T00:34:07;9.00;;;3.50;;
69956;SDS011;57283;54.816;9.482;2023-07-13T00:36:35;7.60;;;3.60;;
69956;SDS011;57283;54.816;9.482;2023-07-13T00:39:03;7.10;;;3.40;;
69956;SDS011;57283;54.816;9.482;2023-07-13T00:41:31;9.50;;;3.50;;
69956;SDS011;57283;54.816;9.482;2023-07-13T00:44:00;7.05;;;3.53;;
69956;SDS011;57283;54.816;9.482;2023-07-13T00:46:29;6.57;;;3.20;;
69956;SDS011;57283;54.816;9.482;2023-07-13T00:48:59;7.28;;;3.58;;
69956;SDS011;57283;54.816;9.482;2023-07-13T00:51:31;7.53;;;2.92;;
69956;SDS011;57283;54.816;9.482;2023-07-13T00:54:00;8.13;;;3.10;;
69956;SDS011;57283;54.816;9.482;2023-07-13T00:56:30;12.57;;;3.65;;
69956;SDS011;57283;54.816;9.482;2023-07-13T00:59:00;7.53;;;3.70;;
69956;SDS011;57283;54.816;9.482;2023-07-13T01:01:29;7.65;;;3.70;;
69956;SDS011;57283;54.816;9.482;2023-07-13T01:03:57;10.38;;;3.85;;
69956;SDS011;57283;54.816;9.482;2023-07-13T01:06:24;7.07;;;3.67;;
69956;SDS011;57283;54.816;9.482;2023-07-13T01:08:52;7.05;;;3.30;;
69956;SDS011;57283;54.816;9.482;2023-07-13T01:11:20;7.13;;;3.00;;
69956;SDS011;57283;54.816;9.482;2023-07-13T01:13:48;7.13;;;3.55;;
69956;SDS011;57283;54.816;9.482;2023-07-13T01:16:19;7.55;;;3.40;;
69956;SDS011;57283;54.816;9.482;2023-07-13T01:18:49;6.87;;;2.97;;
69956;SDS011;57283;54.816;9.482;2023-07-13T01:21:18;8.18;;;3.20;;
69956;SDS011;57283;54.816;9.482;2023-07-13T01:23:46;6.75;;;3.55;;
69956;SDS011;57283;54.816;9.482;2023-07-13T01:26:14;7.13;;;3.65;;
69956;SDS011;57283;54.816;9.482;2023-07-13T01:28:42;7.55;;;3.45;;
69956;SDS011;57283;54.816;9.482;2023-07-13T01:31:09;7.07;;;3.23;;
69956;SDS011;57283;54.816;9.482;2023-07-13T01:33:37;8.30;;;3.28;;
69956;SDS011;57283;54.816;9.482;2023-07-13T01:36:05;8.88;;;3.58;;
69956;SDS011;57283;54.816;9.482;2023-07-13T01:38:35;7.47;;;3.33;;
69956;SDS011;57283;54.816;9.482;2023-07-13T01:41:03;6.55;;;3.30;;
69956;SDS011;57283;54.816;9.482;2023-07-13T01:43:31;9.33;;;3.83;;
69956;SDS011;57283;54.816;9.482;2023-07-13T01:45:58;8.52;;;3.70;;
69956;SDS011;57283;54.816;9.482;2023-07-13T01:48:46;6.97;;;3.90;;
69956;SDS011;57283;54.816;9.482;2023-07-13T01:51:15;7.20;;;3.40;;
69956;SDS011;57283;54.816;9.482;2023-07-13T01:53:44;9.35;;;3.38;;
69956;SDS011;57283;54.816;9.482;2023-07-13T01:56:12;6.37;;;3.57;;
69956;SDS011;57283;54.816;9.482;2023-07-13T01:58:39;7.70;;;3.78;;
69956;SDS011;57283;54.816;9.482;2023-07-13T02:01:07;9.68;;;3.45;;
69956;SDS011;57283;54.816;9.482;2023-07-13T02:03:35;6.18;;;3.10;;
69956;SDS011;57283;54.816;9.482;2023-07-13T02:06:02;8.00;;;3.00;;
69956;SDS011;57283;54.816;9.482;2023-07-13T02:08:30;8.53;;;3.20;;
69956;SDS011;57283;54.816;9.482;2023-07-13T02:10:59;5.70;;;3.25;;
69956;SDS011;57283;54.816;9.482;2023-07-13T02:13:27;6.35;;;3.05;;
69956;SDS011;57283;54.816;9.482;2023-07-13T02:15:55;6.50;;;3.30;;
69956;SDS011;57283;54.816;9.482;2023-07-13T02:18:22;7.85;;;3.58;;
69956;SDS011;57283;54.816;9.482;2023-07-13T02:20:50;7.37;;;3.33;;
69956;SDS011;57283;54.816;9.482;2023-07-13T02:23:17;7.15;;;3.40;;
69956;SDS011;57283;54.816;9.482;2023-07-13T02:25:45;7.78;;;3.58;;
69956;SDS011;57283;54.816;9.482;2023-07-13T02:28:14;7.30;;;3.42;;
69956;SDS011;57283;54.816;9.482;2023-07-13T02:30:42;7.72;;;3.50;;
69956;SDS011;57283;54.816;9.482;2023-07-13T02:33:09;6.77;;;3.30;;
69956;SDS011;57283;54.816;9.482;2023-07-13T02:35:37;7.38;;;4.03;;
69956;SDS011;57283;54.816;9.482;2023-07-13T02:38:04;7.18;;;3.42;;
69956;SDS011;57283;54.816;9.482;2023-07-13T02:40:32;5.55;;;3.10;;
69956;SDS011;57283;54.816;9.482;2023-07-13T02:43:01;6.97;;;3.40;;
69956;SDS011;57283;54.816;9.482;2023-07-13T02:45:30;7.27;;;3.10;;
69956;SDS011;57283;54.816;9.482;2023-07-13T02:47:58;7.55;;;2.95;;
69956;SDS011;57283;54.816;9.482;2023-07-13T02:50:26;7.22;;;3.20;;
69956;SDS011;57283;54.816;9.482;2023-07-13T02:52:53;7.75;;;3.28;;
69956;SDS011;57283;54.816;9.482;2023-07-13T02:55:21;9.00;;;3.10;;
69956;SDS011;57283;54.816;9.482;2023-07-13T02:57:49;6.47;;;3.10;;
69956;SDS011;57283;54.816;9.482;2023-07-13T03:00:17;6.35;;;3.22;;
69956;SDS011;57283;54.816;9.482;2023-07-13T03:02:46;6.80;;;3.35;;
69956;SDS011;57283;54.816;9.482;2023-07-13T03:05:13;6.05;;;2.95;;
69956;SDS011;57283;54.816;9.482;2023-07-13T03:07:42;6.63;;;3.60;;
69956;SDS011;57283;54.816;9.482;2023-07-13T03:10:10;10.47;;;3.90;;
69956;SDS011;57283;54.816;9.482;2023-07-13T03:12:38;7.20;;;3.55;;
69956;SDS011;57283;54.816;9.482;2023-07-13T03:15:06;6.68;;;3.35;;
69956;SDS011;57283;54.816;9.482;2023-07-13T03:17:33;7.88;;;3.42;;
69956;SDS011;57283;54.816;9.482;2023-07-13T03:20:03;5.97;;;3.30;;
69956;SDS011;57283;54.816;9.482;2023-07-13T03:22:30;6.53;;;3.03;;
69956;SDS011;57283;54.816;9.482;2023-07-13T03:24:58;7.05;;;3.42;;
69956;SDS011;57283;54.816;9.482;2023-07-13T03:27:26;5.80;;;3.20;;
69956;SDS011;57283;54.816;9.482;2023-07-13T03:29:53;8.48;;;3.85;;
69956;SDS011;57283;54.816;9.482;2023-07-13T03:32:21;7.57;;;3.80;;
69956;SDS011;57283;54.816;9.482;2023-07-13T03:34:48;6.37;;;3.53;;
69956;SDS011;57283;54.816;9.482;2023-07-13T03:37:17;6.57;;;3.35;;
69956;SDS011;57283;54.816;9.482;2023-07-13T03:39:45;8.30;;;4.70;;
69956;SDS011;57283;54.816;9.482;2023-07-13T03:42:12;7.28;;;3.50;;
69956;SDS011;57283;54.816;9.482;2023-07-13T03:44:42;9.15;;;3.55;;
69956;SDS011;57283;54.816;9.482;2023-07-13T03:47:12;5.63;;;3.50;;
69956;SDS011;57283;54.816;9.482;2023-07-13T03:49:39;7.70;;;3.50;;
69956;SDS011;57283;54.816;9.482;2023-07-13T03:52:07;6.75;;;3.60;;
69956;SDS011;57283;54.816;9.482;2023-07-13T03:54:36;9.00;;;4.00;;
69956;SDS011;57283;54.816;9.482;2023-07-13T03:57:04;5.88;;;3.17;;
69956;SDS011;57283;54.816;9.482;2023-07-13T03:59:32;6.73;;;3.60;;
69956;SDS011;57283;54.816;9.482;2023-07-13T04:02:00;10.57;;;3.80;;
69956;SDS011;57283;54.816;9.482;2023-07-13T04:04:28;6.65;;;3.08;;
69956;SDS011;57283;54.816;9.482;2023-07-13T04:06:57;7.60;;;3.38;;
69956;SDS011;57283;54.816;9.482;2023-07-13T04:09:25;6.53;;;3.40;;
69956;SDS011;57283;54.816;9.482;2023-07-13T04:11:54;7.07;;;3.27;;
69956;SDS011;57283;54.816;9.482;2023-07-13T04:14:21;7.03;;;3.00;;
69956;SDS011;57283;54.816;9.482;2023-07-13T04:16:49;5.32;;;2.78;;
69956;SDS011;57283;54.816;9.482;2023-07-13T04:19:17;6.03;;;2.20;;
69956;SDS011;57283;54.816;9.482;2023-07-13T04:21:44;5.30;;;2.03;;
69956;SDS011;57283;54.816;9.482;2023-07-13T04:24:12;4.43;;;1.80;;
69956;SDS011;57283;54.816;9.482;2023-07-13T04:26:40;4.25;;;1.88;;
69956;SDS011;57283;54.816;9.482;2023-07-13T04:29:08;3.83;;;1.80;;
69956;SDS011;57283;54.816;9.482;2023-07-13T04:31:36;4.40;;;1.70;;
69956;SDS011;57283;54.816;9.482;2023-07-13T04:34:04;5.10;;;1.70;;
69956;SDS011;57283;54.816;9.482;2023-07-13T04:36:31;4.57;;;1.87;;
69956;SDS011;57283;54.816;9.482;2023-07-13T04:38:59;4.00;;;1.77;;
69956;SDS011;57283;54.816;9.482;2023-07-13T04:41:27;4.25;;;2.03;;
69956;SDS011;57283;54.816;9.482;2023-07-13T04:43:54;5.30;;;1.88;;
69956;SDS011;57283;54.816;9.482;2023-07-13T04:46:24;4.15;;;2.00;;
69956;SDS011;57283;54.816;9.482;2023-07-13T04:48:51;5.10;;;1.97;;
69956;SDS011;57283;54.816;9.482;2023-07-13T04:51:20;5.68;;;2.15;;
69956;SDS011;57283;54.816;9.482;2023-07-13T04:53:47;4.55;;;2.00;;
69956;SDS011;57283;54.816;9.482;2023-07-13T04:56:19;5.80;;;2.20;;
69956;SDS011;57283;54.816;9.482;2023-07-13T04:58:47;4.75;;;1.90;;
69956;SDS011;57283;54.816;9.482;2023-07-13T05:01:14;4.20;;;2.00;;
69956;SDS011;57283;54.816;9.482;2023-07-13T05:03:43;4.40;;;1.92;;
69956;SDS011;57283;54.816;9.482;2023-07-13T05:06:11;3.80;;;2.00;;
69956;SDS011;57283;54.816;9.482;2023-07-13T05:08:40;5.07;;;2.10;;
69956;SDS011;57283;54.816;9.482;2023-07-13T05:11:07;5.40;;;2.08;;
69956;SDS011;57283;54.816;9.482;2023-07-13T05:13:36;4.90;;;2.10;;
69956;SDS011;57283;54.816;9.482;2023-07-13T05:16:04;4.88;;;1.95;;
69956;SDS011;57283;54.816;9.482;2023-07-13T05:18:34;4.47;;;2.10;;
69956;SDS011;57283;54.816;9.482;2023-07-13T05:21:04;4.20;;;2.08;;
69956;SDS011;57283;54.816;9.482;2023-07-13T05:23:32;3.97;;;2.00;;
69956;SDS011;57283;54.816;9.482;2023-07-13T05:26:00;4.60;;;2.20;;
69956;SDS011;57283;54.816;9.482;2023-07-13T05:28:31;3.90;;;2.08;;
69956;SDS011;57283;54.816;9.482;2023-07-13T05:30:59;4.82;;;1.98;;
69956;SDS011;57283;54.816;9.482;2023-07-13T05:33:26;5.95;;;2.13;;
69956;SDS011;57283;54.816;9.482;2023-07-13T05:35:54;4.53;;;2.28;;
69956;SDS011;57283;54.816;9.482;2023-07-13T05:38:23;4.43;;;2.20;;
69956;SDS011;57283;54.816;9.482;2023-07-13T05:40:52;5.68;;;2.50;;
69956;SDS011;57283;54.816;9.482;2023-07-13T05:43:20;5.78;;;2.22;;
69956;SDS011;57283;54.816;9.482;2023-07-13T05:45:48;5.68;;;2.58;;
69956;SDS011;57283;54.816;9.482;2023-07-13T05:48:16;7.40;;;2.30;;
69956;SDS011;57283;54.816;9.482;2023-07-13T05:50:43;5.00;;;2.30;;
69956;SDS011;57283;54.816;9.482;2023-07-13T05:53:11;4.60;;;2.50;;
69956;SDS011;57283;54.816;9.482;2023-07-13T05:55:42;5.38;;;2.20;;
69956;SDS011;57283;54.816;9.482;2023-07-13T05:58:11;7.03;;;2.25;;
69956;SDS011;57283;54.816;9.482;2023-07-13T06:00:38;4.60;;;2.20;;
69956;SDS011;57283;54.816;9.482;2023-07-13T06:03:07;5.03;;;2.53;;
69956;SDS011;57283;54.816;9.482;2023-07-13T06:05:35;7.43;;;2.35;;
69956;SDS011;57283;54.816;9.482;2023-07-13T06:08:04;5.68;;;2.55;;
69956;SDS011;57283;54.816;9.482;2023-07-13T06:10:32;5.03;;;2.50;;
69956;SDS011;57283;54.816;9.482;2023-07-13T06:13:01;5.47;;;2.53;;
69956;SDS011;57283;54.816;9.482;2023-07-13T06:15:29;7.27;;;2.30;;
69956;SDS011;57283;54.816;9.482;2023-07-13T06:17:57;4.68;;;2.30;;
69956;SDS011;57283;54.816;9.482;2023-07-13T06:20:24;5.65;;;2.20;;
69956;SDS011;57283;54.816;9.482;2023-07-13T06:22:52;4.20;;;2.35;;
69956;SDS011;57283;54.816;9.482;2023-07-13T06:25:20;5.10;;;2.45;;
69956;SDS011;57283;54.816;9.482;2023-07-13T06:27:47;6.60;;;2.50;;
69956;SDS011;57283;54.816;9.482;2023-07-13T06:30:16;6.50;;;2.65;;
69956;SDS011;57283;54.816;9.482;2023-07-13T06:32:44;5.55;;;2.53;;
69956;SDS011;57283;54.816;9.482;2023-07-13T06:35:11;4.13;;;2.25;;
69956;SDS011;57283;54.816;9.482;2023-07-13T06:37:40;5.43;;;2.75;;
69956;SDS011;57283;54.816;9.482;2023-07-13T06:40:08;6.43;;;2.67;;
69956;SDS011;57283;54.816;9.482;2023-07-13T06:42:35;5.05;;;2.42;;
69956;SDS011;57283;54.816;9.482;2023-07-13T06:45:05;5.28;;;2.33;;
69956;SDS011;57283;54.816;9.482;2023-07-13T06:47:34;6.78;;;2.53;;
69956;SDS011;57283;54.816;9.482;2023-07-13T06:50:02;5.40;;;2.10;;
69956;SDS011;57283;54.816;9.482;2023-07-13T06:52:29;4.97;;;2.30;;
69956;SDS011;57283;54.816;9.482;2023-07-13T06:54:57;4.55;;;2.30;;
69956;SDS011;57283;54.816;9.482;2023-07-13T06:57:25;4.57;;;2.15;;
69956;SDS011;57283;54.816;9.482;2023-07-13T06:59:52;6.60;;;2.33;;
69956;SDS011;57283;54.816;9.482;2023-07-13T07:02:20;5.07;;;2.50;;
69956;SDS011;57283;54.816;9.482;2023-07-13T07:04:49;5.73;;;2.13;;
69956;SDS011;57283;54.816;9.482;2023-07-13T07:07:17;4.72;;;2.10;;
69956;SDS011;57283;54.816;9.482;2023-07-13T07:09:44;5.47;;;2.45;;
69956;SDS011;57283;54.816;9.482;2023-07-13T07:12:12;5.03;;;2.30;;
69956;SDS011;57283;54.816;9.482;2023-07-13T07:14:40;4.47;;;2.08;;
69956;SDS011;57283;54.816;9.482;2023-07-13T07:17:08;4.70;;;1.90;;
69956;SDS011;57283;54.816;9.482;2023-07-13T07:19:36;4.00;;;2.00;;
69956;SDS011;57283;54.816;9.482;2023-07-13T07:22:05;5.10;;;2.30;;
69956;SDS011;57283;54.816;9.482;2023-07-13T07:24:32;7.22;;;2.45;;
69956;SDS011;57283;54.816;9.482;2023-07-13T07:27:00;3.83;;;2.13;;
69956;SDS011;57283;54.816;9.482;2023-07-13T07:29:30;4.53;;;2.17;;
69956;SDS011;57283;54.816;9.482;2023-07-13T07:32:01;5.22;;;2.40;;
69956;SDS011;57283;54.816;9.482;2023-07-13T07:34:43;4.90;;;2.20;;
69956;SDS011;57283;54.816;9.482;2023-07-13T07:37:13;4.82;;;2.55;;
69956;SDS011;57283;54.816;9.482;2023-07-13T07:39:43;5.00;;;2.40;;
69956;SDS011;57283;54.816;9.482;2023-07-13T07:42:31;3.87;;;1.90;;
69956;SDS011;57283;54.816;9.482;2023-07-13T07:44:58;4.45;;;2.20;;
69956;SDS011;57283;54.816;9.482;2023-07-13T07:47:27;3.70;;;2.15;;
69956;SDS011;57283;54.816;9.482;2023-07-13T07:49:54;5.30;;;2.30;;
69956;SDS011;57283;54.816;9.482;2023-07-13T07:52:23;5.03;;;2.22;;
69956;SDS011;57283;54.816;9.482;2023-07-13T07:54:51;5.30;;;2.50;;
69956;SDS011;57283;54.816;9.482;2023-07-13T07:57:21;3.78;;;2.20;;
69956;SDS011;57283;54.816;9.482;2023-07-13T07:59:52;4.13;;;2.03;;
69956;SDS011;57283;54.816;9.482;2023-07-13T08:02:23;6.85;;;2.42;;
69956;SDS011;57283;54.816;9.482;2023-07-13T08:04:54;5.35;;;2.35;;
69956;SDS011;57283;54.816;9.482;2023-07-13T08:07:26;5.97;;;2.27;;
69956;SDS011;57283;54.816;9.482;2023-07-13T08:09:54;5.00;;;2.30;;
69956;SDS011;57283;54.816;9.482;2023-07-13T08:12:21;6.03;;;2.30;;
69956;SDS011;57283;54.816;9.482;2023-07-13T08:14:52;4.50;;;2.33;;
69956;SDS011;57283;54.816;9.482;2023-07-13T08:17:20;4.85;;;2.30;;
69956;SDS011;57283;54.816;9.482;2023-07-13T08:19:48;6.83;;;2.57;;
69956;SDS011;57283;54.816;9.482;2023-07-13T08:22:16;3.70;;;2.55;;
69956;SDS011;57283;54.816;9.482;2023-07-13T08:24:45;3.60;;;2.20;;
69956;SDS011;57283;54.816;9.482;2023-07-13T08:27:13;4.43;;;2.15;;
69956;SDS011;57283;54.816;9.482;2023-07-13T08:29:41;3.88;;;2.20;;
69956;SDS011;57283;54.816;9.482;2023-07-13T08:32:08;4.53;;;2.33;;
69956;SDS011;57283;54.816;9.482;2023-07-13T08:34:37;3.75;;;2.58;;
69956;SDS011;57283;54.816;9.482;2023-07-13T08:37:05;4.00;;;2.28;;
69956;SDS011;57283;54.816;9.482;2023-07-13T08:39:33;3.83;;;2.28;;
69956;SDS011;57283;54.816;9.482;2023-07-13T08:42:04;4.75;;;2.58;;
69956;SDS011;57283;54.816;9.482;2023-07-13T08:44:36;4.80;;;2.50;;
69956;SDS011;57283;54.816;9.482;2023-07-13T08:47:04;5.35;;;1.90;;
69956;SDS011;57283;54.816;9.482;2023-07-13T08:49:33;5.53;;;2.30;;
69956;SDS011;57283;54.816;9.482;2023-07-13T08:52:02;4.88;;;2.40;;
69956;SDS011;57283;54.816;9.482;2023-07-13T08:54:32;5.05;;;2.30;;
69956;SDS011;57283;54.816;9.482;2023-07-13T08:57:02;5.17;;;2.10;;
69956;SDS011;57283;54.816;9.482;2023-07-13T08:59:32;5.05;;;2.45;;
69956;SDS011;57283;54.816;9.482;2023-07-13T09:02:05;5.88;;;2.85;;
69956;SDS011;57283;54.816;9.482;2023-07-13T09:04:36;6.22;;;2.30;;
69956;SDS011;57283;54.816;9.482;2023-07-13T09:07:05;6.07;;;3.15;;
69956;SDS011;57283;54.816;9.482;2023-07-13T09:09:37;7.87;;;2.70;;
69956;SDS011;57283;54.816;9.482;2023-07-13T09:12:13;5.03;;;2.47;;
69956;SDS011;57283;54.816;9.482;2023-07-13T09:14:44;5.28;;;2.30;;
69956;SDS011;57283;54.816;9.482;2023-07-13T09:17:14;6.43;;;2.80;;
69956;SDS011;57283;54.816;9.482;2023-07-13T09:19:46;4.70;;;2.40;;
69956;SDS011;57283;54.816;9.482;2023-07-13T09:22:15;3.90;;;2.37;;
69956;SDS011;57283;54.816;9.482;2023-07-13T09:24:49;4.57;;;2.60;;
69956;SDS011;57283;54.816;9.482;2023-07-13T09:27:19;6.15;;;2.65;;
69956;SDS011;57283;54.816;9.482;2023-07-13T09:29:51;5.55;;;2.35;;
69956;SDS011;57283;54.816;9.482;2023-07-13T09:32:21;4.43;;;2.47;;
69956;SDS011;57283;54.816;9.482;2023-07-13T09:34:52;4.95;;;2.38;;
69956;SDS011;57283;54.816;9.482;2023-07-13T09:37:20;4.55;;;2.10;;
69956;SDS011;57283;54.816;9.482;2023-07-13T09:39:48;4.87;;;2.00;;
69956;SDS011;57283;54.816;9.482;2023-07-13T09:42:17;4.03;;;2.25;;
69956;SDS011;57283;54.816;9.482;2023-07-13T09:44:52;4.10;;;1.90;;
69956;SDS011;57283;54.816;9.482;2023-07-13T09:47:21;3.58;;;1.80;;
69956;SDS011;57283;54.816;9.482;2023-07-13T09:49:53;4.22;;;1.90;;
69956;SDS011;57283;54.816;9.482;2023-07-13T09:52:21;3.47;;;1.70;;
69956;SDS011;57283;54.816;9.482;2023-07-13T09:54:49;3.67;;;1.70;;
69956;SDS011;57283;54.816;9.482;2023-07-13T09:57:18;3.33;;;1.85;;
69956;SDS011;57283;54.816;9.482;2023-07-13T09:59:47;4.80;;;1.70;;
69956;SDS011;57283;54.816;9.482;2023-07-13T10:02:24;3.88;;;1.90;;
69956;SDS011;57283;54.816;9.482;2023-07-13T10:04:55;4.60;;;1.60;;
69956;SDS011;57283;54.816;9.482;2023-07-13T10:07:23;6.50;;;1.77;;
69956;SDS011;57283;54.816;9.482;2023-07-13T10:09:56;3.97;;;1.88;;
69956;SDS011;57283;54.816;9.482;2023-07-13T10:12:24;3.60;;;2.08;;
69956;SDS011;57283;54.816;9.482;2023-07-13T10:14:52;3.30;;;1.98;;
69956;SDS011;57283;54.816;9.482;2023-07-13T10:17:39;4.60;;;2.50;;
69956;SDS011;57283;54.816;9.482;2023-07-13T10:20:07;4.82;;;2.40;;
69956;SDS011;57283;54.816;9.482;2023-07-13T10:22:40;5.05;;;2.30;;
69956;SDS011;57283;54.816;9.482;2023-07-13T10:25:16;7.03;;;2.20;;
69956;SDS011;57283;54.816;9.482;2023-07-13T10:27:45;5.00;;;2.72;;
69956;SDS011;57283;54.816;9.482;2023-07-13T10:30:14;6.57;;;2.50;;
69956;SDS011;57283;54.816;9.482;2023-07-13T10:32:46;4.72;;;2.45;;
69956;SDS011;57283;54.816;9.482;2023-07-13T10:35:15;5.85;;;2.03;;
69956;SDS011;57283;54.816;9.482;2023-07-13T10:37:45;6.32;;;3.35;;
69956;SDS011;57283;54.816;9.482;2023-07-13T10:40:16;5.43;;;2.63;;
69956;SDS011;57283;54.816;9.482;2023-07-13T10:42:46;4.67;;;2.50;;
69956;SDS011;57283;54.816;9.482;2023-07-13T10:45:15;5.35;;;2.25;;
69956;SDS011;57283;54.816;9.482;2023-07-13T10:47:45;4.53;;;2.80;;
69956;SDS011;57283;54.816;9.482;2023-07-13T10:50:15;4.57;;;2.20;;
69956;SDS011;57283;54.816;9.482;2023-07-13T10:52:45;7.53;;;2.40;;
69956;SDS011;57283;54.816;9.482;2023-07-13T10:55:33;5.70;;;2.40;;
69956;SDS011;57283;54.816;9.482;2023-07-13T10:58:12;4.40;;;2.13;;
69956;SDS011;57283;54.816;9.482;2023-07-13T11:00:44;4.65;;;2.40;;
69956;SDS011;57283;54.816;9.482;2023-07-13T11:03:15;3.85;;;2.45;;
69956;SDS011;57283;54.816;9.482;2023-07-13T11:05:47;4.63;;;2.53;;
69956;SDS011;57283;54.816;9.482;2023-07-13T11:08:19;5.53;;;3.13;;
69956;SDS011;57283;54.816;9.482;2023-07-13T11:10:50;5.15;;;2.40;;
69956;SDS011;57283;54.816;9.482;2023-07-13T11:13:38;4.85;;;2.40;;
69956;SDS011;57283;54.816;9.482;2023-07-13T11:16:12;4.63;;;2.15;;
69956;SDS011;57283;54.816;9.482;2023-07-13T11:18:42;4.22;;;2.47;;
69956;SDS011;57283;54.816;9.482;2023-07-13T11:21:12;4.80;;;2.20;;
69956;SDS011;57283;54.816;9.482;2023-07-13T11:24:01;5.68;;;2.30;;
69956;SDS011;57283;54.816;9.482;2023-07-13T11:26:39;5.22;;;2.25;;
69956;SDS011;57283;54.816;9.482;2023-07-13T11:29:14;7.47;;;2.50;;
69956;SDS011;57283;54.816;9.482;2023-07-13T11:31:51;7.20;;;2.83;;
69956;SDS011;57283;54.816;9.482;2023-07-13T11:34:23;4.37;;;2.40;;
69956;SDS011;57283;54.816;9.482;2023-07-13T11:36:52;6.07;;;2.30;;
69956;SDS011;57283;54.816;9.482;2023-07-13T11:39:21;4.10;;;2.30;;
69956;SDS011;57283;54.816;9.482;2023-07-13T11:41:52;5.90;;;2.50;;
69956;SDS011;57283;54.816;9.482;2023-07-13T11:44:22;5.10;;;2.70;;
69956;SDS011;57283;54.816;9.482;2023-07-13T11:46:51;5.93;;;2.83;;
69956;SDS011;57283;54.816;9.482;2023-07-13T11:49:23;6.88;;;2.50;;
69956;SDS011;57283;54.816;9.482;2023-07-13T11:51:51;5.82;;;2.95;;
69956;SDS011;57283;54.816;9.482;2023-07-13T11:54:25;6.05;;;2.50;;
69956;SDS011;57283;54.816;9.482;2023-07-13T11:56:54;5.30;;;2.65;;
69956;SDS011;57283;54.816;9.482;2023-07-13T11:59:23;5.57;;;2.80;;
69956;SDS011;57283;54.816;9.482;2023-07-13T12:01:52;5.50;;;2.70;;
69956;SDS011;57283;54.816;9.482;2023-07-13T12:04:21;5.63;;;2.50;;
69956;SDS011;57283;54.816;9.482;2023-07-13T12:06:56;4.63;;;2.13;;
69956;SDS011;57283;54.816;9.482;2023-07-13T12:09:26;5.72;;;2.10;;
69956;SDS011;57283;54.816;9.482;2023-07-13T12:11:55;6.17;;;2.13;;
69956;SDS011;57283;54.816;9.482;2023-07-13T12:14:23;4.75;;;2.17;;
69956;SDS011;57283;54.816;9.482;2023-07-13T12:16:53;5.45;;;2.20;;
69956;SDS011;57283;54.816;9.482;2023-07-13T12:19:21;5.93;;;2.25;;
69956;SDS011;57283;54.816;9.482;2023-07-13T12:21:50;4.53;;;2.40;;
69956;SDS011;57283;54.816;9.482;2023-07-13T12:24:21;4.20;;;2.43;;
69956;SDS011;57283;54.816;9.482;2023-07-13T12:26:50;5.03;;;2.58;;
69956;SDS011;57283;54.816;9.482;2023-07-13T12:29:18;6.95;;;2.83;;
69956;SDS011;57283;54.816;9.482;2023-07-13T12:31:47;4.97;;;2.38;;
69956;SDS011;57283;54.816;9.482;2023-07-13T12:34:15;4.63;;;2.50;;
69956;SDS011;57283;54.816;9.482;2023-07-13T12:36:45;5.97;;;2.90;;
69956;SDS011;57283;54.816;9.482;2023-07-13T12:39:15;5.60;;;2.47;;
69956;SDS011;57283;54.816;9.482;2023-07-13T12:41:53;5.78;;;2.20;;
69956;SDS011;57283;54.816;9.482;2023-07-13T12:44:23;6.95;;;2.67;;
69956;SDS011;57283;54.816;9.482;2023-07-13T12:46:53;5.50;;;2.75;;
69956;SDS011;57283;54.816;9.482;2023-07-13T12:49:23;4.10;;;2.30;;
69956;SDS011;57283;54.816;9.482;2023-07-13T12:51:55;5.18;;;2.30;;
69956;SDS011;57283;54.816;9.482;2023-07-13T12:54:23;4.80;;;1.85;;
69956;SDS011;57283;54.816;9.482;2023-07-13T12:56:53;5.55;;;2.00;;
69956;SDS011;57283;54.816;9.482;2023-07-13T12:59:22;6.95;;;2.30;;
69956;SDS011;57283;54.816;9.482;2023-07-13T13:01:53;4.60;;;2.00;;
69956;SDS011;57283;54.816;9.482;2023-07-13T13:04:21;5.72;;;2.17;;
69956;SDS011;57283;54.816;9.482;2023-07-13T13:06:49;4.07;;;2.10;;
69956;SDS011;57283;54.816;9.482;2023-07-13T13:09:27;4.10;;;1.88;;
69956;SDS011;57283;54.816;9.482;2023-07-13T13:11:56;4.43;;;2.00;;
69956;SDS011;57283;54.816;9.482;2023-07-13T13:14:24;4.30;;;2.03;;
69956;SDS011;57283;54.816;9.482;2023-07-13T13:16:52;3.90;;;1.88;;
69956;SDS011;57283;54.816;9.482;2023-07-13T13:19:22;3.85;;;2.03;;
69956;SDS011;57283;54.816;9.482;2023-07-13T13:21:51;3.58;;;1.80;;
69956;SDS011;57283;54.816;9.482;2023-07-13T13:24:20;4.18;;;1.80;;
69956;SDS011;57283;54.816;9.482;2023-07-13T13:26:48;5.47;;;2.00;;
69956;SDS011;57283;54.816;9.482;2023-07-13T13:29:17;4.25;;;1.50;;
69956;SDS011;57283;54.816;9.482;2023-07-13T13:31:45;3.58;;;1.90;;
69956;SDS011;57283;54.816;9.482;2023-07-13T13:34:14;3.92;;;2.00;;
69956;SDS011;57283;54.816;9.482;2023-07-13T13:36:43;4.15;;;1.70;;
69956;SDS011;57283;54.816;9.482;2023-07-13T13:39:21;3.20;;;1.60;;
69956;SDS011;57283;54.816;9.482;2023-07-13T13:41:49;4.15;;;1.80;;
69956;SDS011;57283;54.816;9.482;2023-07-13T13:44:18;3.72;;;1.70;;
69956;SDS011;57283;54.816;9.482;2023-07-13T13:46:47;3.75;;;1.80;;
69956;SDS011;57283;54.816;9.482;2023-07-13T13:49:16;5.18;;;1.75;;
69956;SDS011;57283;54.816;9.482;2023-07-13T13:51:44;3.73;;;1.77;;
69956;SDS011;57283;54.816;9.482;2023-07-13T13:54:12;3.65;;;1.60;;
69956;SDS011;57283;54.816;9.482;2023-07-13T13:56:41;4.18;;;1.70;;
69956;SDS011;57283;54.816;9.482;2023-07-13T13:59:09;3.92;;;1.80;;
69956;SDS011;57283;54.816;9.482;2023-07-13T14:01:38;6.57;;;1.80;;
69956;SDS011;57283;54.816;9.482;2023-07-13T14:04:06;4.93;;;1.60;;
69956;SDS011;57283;54.816;9.482;2023-07-13T14:06:36;4.63;;;1.65;;
69956;SDS011;57283;54.816;9.482;2023-07-13T14:09:08;4.78;;;1.60;;
69956;SDS011;57283;54.816;9.482;2023-07-13T14:11:36;4.43;;;1.30;;
69956;SDS011;57283;54.816;9.482;2023-07-13T14:14:04;4.28;;;1.65;;
69956;SDS011;57283;54.816;9.482;2023-07-13T14:16:32;5.80;;;1.60;;
69956;SDS011;57283;54.816;9.482;2023-07-13T14:19:02;3.35;;;1.42;;
69956;SDS011;57283;54.816;9.482;2023-07-13T14:21:29;4.85;;;1.50;;
69956;SDS011;57283;54.816;9.482;2023-07-13T14:23:57;4.60;;;1.50;;
69956;SDS011;57283;54.816;9.482;2023-07-13T14:26:25;4.50;;;1.52;;
69956;SDS011;57283;54.816;9.482;2023-07-13T14:28:54;3.73;;;1.70;;
69956;SDS011;57283;54.816;9.482;2023-07-13T14:31:23;6.00;;;1.90;;
69956;SDS011;57283;54.816;9.482;2023-07-13T14:33:56;6.07;;;2.70;;
69956;SDS011;57283;54.816;9.482;2023-07-13T14:36:26;5.57;;;1.75;;
69956;SDS011;57283;54.816;9.482;2023-07-13T14:38:55;4.38;;;1.60;;
69956;SDS011;57283;54.816;9.482;2023-07-13T14:41:23;5.33;;;2.30;;
69956;SDS011;57283;54.816;9.482;2023-07-13T14:43:51;4.97;;;1.65;;
69956;SDS011;57283;54.816;9.482;2023-07-13T14:46:27;4.50;;;1.90;;
69956;SDS011;57283;54.816;9.482;2023-07-13T14:48:59;3.78;;;1.60;;
69956;SDS011;57283;54.816;9.482;2023-07-13T14:51:29;5.30;;;1.80;;
69956;SDS011;57283;54.816;9.482;2023-07-13T14:53:57;6.07;;;2.00;;
69956;SDS011;57283;54.816;9.482;2023-07-13T14:56:24;4.28;;;1.50;;
69956;SDS011;57283;54.816;9.482;2023-07-13T14:58:52;3.92;;;1.90;;
69956;SDS011;57283;54.816;9.482;2023-07-13T15:01:20;4.75;;;1.80;;